Flight Track Log - Related Links

Times and Time Zones

All times are in EDT time to prevent confusion due to time zone crossing. See the EJA922 flight status page for this flight to view local times or setup timezone preferences in your user account.

Time Position Orientation Groundspeed Altitude Reporting Facility
EDT Latitude Longitude Course Direction KTS MPH feet Rate Location/Type
Mon 10:29:44 AM 40.9000 -74.0333 290° West 229 264 2,800  Level New York TRACON
Mon 10:31:31 AM 40.9414 -74.1828 290° West 264 304 6,500 2,515 Climbing New York Center
Mon 10:32:31 AM 40.9361 -74.2981 267° West 281 323 9,800 2,678 Climbing New York Center
Mon 10:33:32 AM 40.9100 -74.3981 251° West 309 356 11,900 2,557 Climbing New York Center
Mon 10:34:33 AM 40.8108 -74.4367 196° South 298 343 15,000 2,571 Climbing New York Center
Mon 10:35:31 AM 40.7464 -74.5072 220° Southwest 335 386 17,000 1,017 Climbing New York Center
Mon 10:36:31 AM 40.6958 -74.6494 245° Southwest 362 417 17,000 248 Level New York Center
Mon 10:37:32 AM 40.6500 -74.7728 244° Southwest 411 473 17,500 1,059 Climbing New York Center
Mon 10:38:30 AM 40.5583 -74.8931 225° Southwest 424 488 19,100 1,412 Climbing New York Center
Mon 10:39:31 AM 40.4775 -75.0028 226° Southwest 429 494 20,300 1,250 Climbing New York Center
Mon 10:40:30 AM 40.4072 -75.0992 226° Southwest 429 494 21,600 1,160 Climbing New York Center
Mon 10:41:30 AM 40.3281 -75.2086 227° Southwest 422 486 22,600 878 Climbing New York Center
Mon 10:42:33 AM 40.2378 -75.3361 227° Southwest 430 495 23,400 950 Climbing New York Center
Mon 10:43:30 AM 40.1542 -75.4503 226° Southwest 435 501 24,500 1,017 Climbing New York Center
Mon 10:44:31 AM 40.0811 -75.5539 227° Southwest 435 501 25,400 744 Climbing New York Center
Mon 10:45:31 AM 39.9886 -75.6775 226° Southwest 442 509 26,000 209 Climbing New York Center
Mon 10:47:23 AM 39.8342 -75.8914 227° Southwest 473 544 26,000  Level Washington Center
Mon 10:48:24 AM 39.7336 -76.0286 226° Southwest 478 550 26,000  Level Washington Center
Mon 10:49:24 AM 39.6497 -76.1414 226° Southwest 478 550 26,000 -750 Level Washington Center
Mon 10:50:24 AM 39.5428 -76.2778 225° Southwest 478 550 24,500 -1,983 Descending Washington Center
Mon 10:51:22 AM 39.4547 -76.3978 226° Southwest 478 550 22,100 -1,261 Descending Washington Center
Mon 10:52:23 AM 39.3786 -76.5206 231° Southwest 467 537 22,000 -49 Descending Washington Center
Mon 10:53:24 AM 39.3028 -76.6375 230° Southwest 448 516 22,000  Level Washington Center
Mon 10:54:22 AM 39.2267 -76.7569 231° Southwest 443 510 22,000  Level Washington Center
Mon 10:55:22 AM 39.1525 -76.8764 231° Southwest 437 503 22,000  Level Washington Center
Mon 10:56:23 AM 39.0761 -76.9928 230° Southwest 443 510 22,000 -443 Level Washington Center
Mon 10:57:24 AM 39.0017 -77.1114 231° Southwest 443 510 21,100 -992 Descending Washington Center
Mon 10:58:24 AM 38.9272 -77.2328 232° Southwest 443 510 20,000 -763 Descending Washington Center
Mon 10:59:22 AM 38.8525 -77.3483 230° Southwest 443 510 19,600 -1,220 Descending Washington Center
Mon 11:00:22 AM 38.7778 -77.4664 231° Southwest 438 504 17,600 -1,985 Descending Washington Center
Mon 11:01:35 AM 38.7031 -77.5814 230° Southwest 438 504 15,200 -2,481 Descending Washington Center
Mon 11:02:35 AM 38.6194 -77.7122 231° Southwest 419 482 12,100 -2,022 Descending Washington Center
Mon 11:04:36 AM 38.4833 -77.9167 230° Southwest 300 345 9,100 -1,022 Descending Potomac TRACON
Mon 11:05:37 AM 38.4333 -77.9833 226° Southwest 273 314 9,000 -50 Descending Potomac TRACON
Mon 11:06:37 AM 38.3667 -78.0167 201° Southwest 281 323 9,000  Level Potomac TRACON
Mon 11:07:31 AM 38.3000 -78.0333 191° South 289 333 9,000 -444 Level Potomac TRACON
Mon 11:08:25 AM 38.2333 -78.0500 191° South 289 333 8,200 -526 Descending Potomac TRACON
Mon 11:09:25 AM 38.1667 -78.1167 218° Southwest 277 319 8,000 -1,091 Descending Potomac TRACON
Mon 11:10:26 AM 38.1167 -78.1833 226° Southwest 276 318 6,000 -1,636 Descending Potomac TRACON
Mon 11:11:26 AM 38.0667 -78.2500 226° Southwest 247 284 4,700 -1,000 Descending Potomac TRACON
Mon 11:12:26 AM 38.0167 -78.3000 218° Southwest 229 264 4,000 -347 Descending Potomac TRACON
Mon 11:13:27 AM 37.9667 -78.3500 218° Southwest 213 245 4,000  Level Potomac TRACON
Mon 11:14:27 AM 37.9333 -78.4000 230° Southwest 218 251 4,000 -200 Level Potomac TRACON
Mon 11:15:27 AM 37.9000 -78.4500 230° Southwest 230 265 3,600 -368 Descending Potomac TRACON
Mon 11:16:21 AM 37.9167 -78.5167 288° West 218 251 3,300 -158 Descending Potomac TRACON
Mon 11:17:21 AM 37.9833 -78.5333 349° North 204 235 3,300 -250 Level Potomac TRACON
Mon 11:18:21 AM 38.0167 -78.5000 38° Northeast 164 189 2,800 -650 Descending Potomac TRACON
Mon 11:19:21 AM 38.0667 -78.4833 15° North 150 173 2,000 -750 Descending Potomac TRACON
Mon 11:20:21 AM 38.1000 -78.4667 21° North 135 155 1,300 -700 Descending Potomac TRACON
Mon 11:22:00 AM 38.1333 -78.4500 North  Level FlightAware Approximate
Mon 11:29:00 AM 38.1386 -78.4529 North  Level Estimated
Mon 11:30:00 AM 38.1333 -78.4500 North  Level FlightAware Approximate
Mon 11:31:00 AM 38.1386 -78.4529 North  Level Estimated
Mon 11:32:00 AM 38.1333 -78.4500 North  Level FlightAware Approximate

Login

Don't have an account? Register now (free) for customized features, flight alerts, and more!